Time;durP1;ratioP1;P1;durP2;ratioP2;P2;SDS_P1;SDS_P2;PMS_P1;PMS_P2;Temp;Humidity;BMP_temperature;BMP_pressure;BME280_temperature;BME280_humidity;BME280_pressure;Samples;Min_cycle;Max_cycle;Signal;HPM_P1;HPM_P2
2022/05/29 00:00:42;;;;;;;1.60;1.40;;;;;;;;;;4766862;29;20949;-78
2022/05/29 00:03:45;;;;;;;1.98;1.60;;;;;;;;;;4791423;29;20066;-78
2022/05/29 00:06:59;;;;;;;1.67;1.50;;;;;;;;;;4802828;23;20472;-79
2022/05/29 00:11:10;;;;;;;2.75;1.60;;;;;;;;;;4837816;29;20108;-77
2022/05/29 00:18:05;;;;;;;3.28;1.60;;;;;;;;;;4770362;29;20070;-78
2022/05/29 00:25:48;;;;;;;;;;;;;;;;;;;;;
2022/05/29 00:36:50;;;;;;;1.25;1.20;;;;;;;;;;4772102;29;20524;-78
2022/05/29 00:45:28;;;;;;;1.40;1.30;;;;;;;;;;4829432;29;20045;-78
2022/05/29 00:48:50;;;;;;;1.50;1.10;;;;;;;;;;4829585;29;20052;-79
2022/05/29 00:52:07;;;;;;;2.90;1.50;;;;;;;;;;4833883;29;20041;-78
2022/05/29 00:58:32;;;;;;;1.60;1.50;;;;;;;;;;4850627;29;20386;-77
2022/05/29 01:02:00;;;;;;;1.55;1.45;;;;;;;;;;4861747;29;20056;-78
2022/05/29 01:04:38;;;;;;;1.50;1.40;;;;;;;;;;4898153;29;20055;-78
2022/05/29 01:08:00;;;;;;;4.53;1.55;;;;;;;;;;4889722;29;20040;-78
2022/05/29 01:15:57;;;;;;;1.35;1.25;;;;;;;;;;4880390;24;20519;-77
2022/05/29 01:18:26;;;;;;;2.45;1.60;;;;;;;;;;4882314;29;20049;-78
2022/05/29 01:20:59;;;;;;;1.52;1.42;;;;;;;;;;4847868;29;20053;-76
2022/05/29 01:23:36;;;;;;;1.50;1.40;;;;;;;;;;4888354;29;20052;-79
2022/05/29 01:26:22;;;;;;;1.48;1.20;;;;;;;;;;4885172;29;20516;-77
2022/05/29 01:29:06;;;;;;;3.58;1.30;;;;;;;;;;4856161;29;20048;-78
2022/05/29 01:31:40;;;;;;;3.17;1.45;;;;;;;;;;4880140;29;20131;-77
2022/05/29 01:34:13;;;;;;;1.85;1.42;;;;;;;;;;4891219;29;20536;-78
2022/05/29 01:36:47;;;;;;;1.58;1.48;;;;;;;;;;4873145;29;20375;-78
2022/05/29 01:39:20;;;;;;;2.90;1.40;;;;;;;;;;4873423;29;20438;-79
2022/05/29 01:41:54;;;;;;;1.58;1.48;;;;;;;;;;4879527;29;20116;-79
2022/05/29 01:44:41;;;;;;;2.25;1.52;;;;;;;;;;4885864;29;20052;-78
2022/05/29 01:47:18;;;;;;;1.30;1.20;;;;;;;;;;4869940;29;20053;-79
2022/05/29 01:49:50;;;;;;;1.45;1.35;;;;;;;;;;4865789;29;20169;-78
2022/05/29 01:52:17;;;;;;;;;;;;;;;;;;4878048;29;20052;-79
2022/05/29 01:54:55;;;;;;;1.55;1.40;;;;;;;;;;4865815;29;20376;-78
2022/05/29 01:57:25;;;;;;;2.08;1.50;;;;;;;;;;4877161;29;20450;-78
2022/05/29 01:59:56;;;;;;;2.17;1.60;;;;;;;;;;4865392;29;20048;-80
2022/05/29 02:02:43;;;;;;;1.58;1.48;;;;;;;;;;4861937;29;20053;-79
2022/05/29 02:05:37;;;;;;;1.40;1.30;;;;;;;;;;4865600;29;20052;-80
2022/05/29 02:08:16;;;;;;;2.47;1.40;;;;;;;;;;4847700;29;20048;-80
2022/05/29 02:10:49;;;;;;;1.50;1.40;;;;;;;;;;4896483;29;20839;-78
2022/05/29 02:13:16;;;;;;;1.30;1.30;;;;;;;;;;4876862;29;20049;-79
2022/05/29 02:15:56;;;;;;;1.35;1.30;;;;;;;;;;4875907;29;20072;-78
2022/05/29 02:18:43;;;;;;;1.58;1.48;;;;;;;;;;4878637;29;20074;-79
2022/05/29 02:21:23;;;;;;;1.50;1.40;;;;;;;;;;4863088;29;20816;-79
2022/05/29 02:23:52;;;;;;;2.00;1.65;;;;;;;;;;4865806;29;20155;-78
2022/05/29 02:26:24;;;;;;;2.00;1.60;;;;;;;;;;4870098;29;20052;-78
2022/05/29 02:28:55;;;;;;;1.75;1.45;;;;;;;;;;4895856;29;20079;-79
2022/05/29 02:31:42;;;;;;;1.88;1.70;;;;;;;;;;4896933;29;20513;-79
2022/05/29 02:34:32;;;;;;;2.63;1.52;;;;;;;;;;4881186;29;20048;-78
2022/05/29 02:37:10;;;;;;;2.88;1.42;;;;;;;;;;4881272;29;20053;-79
2022/05/29 02:39:56;;;;;;;2.20;1.50;;;;;;;;;;4895024;29;20509;-78
2022/05/29 02:42:32;;;;;;;1.40;1.30;;;;;;;;;;4899324;29;20076;-78
2022/05/29 02:45:08;;;;;;;2.92;1.40;;;;;;;;;;4878072;29;20056;-78
2022/05/29 02:47:38;;;;;;;1.30;1.30;;;;;;;;;;4899472;29;20043;-79
2022/05/29 02:50:28;;;;;;;1.40;1.30;;;;;;;;;;4896673;29;20044;-78
2022/05/29 02:52:57;;;;;;;1.70;1.60;;;;;;;;;;4900169;29;20655;-79
2022/05/29 02:55:24;;;;;;;1.50;1.40;;;;;;;;;;4898997;29;20056;-78
2022/05/29 02:57:56;;;;;;;2.42;1.80;;;;;;;;;;4874055;29;20135;-78
2022/05/29 03:00:24;;;;;;;;;;;;;;;;;;4882504;29;20049;-78
2022/05/29 03:03:18;;;;;;;1.63;1.20;;;;;;;;;;4886429;29;20990;-78
2022/05/29 03:06:15;;;;;;;1.70;1.60;;;;;;;;;;4867688;29;20070;-78
2022/05/29 03:09:01;;;;;;;1.55;1.50;;;;;;;;;;4852855;29;20099;-79
2022/05/29 03:11:42;;;;;;;1.50;1.40;;;;;;;;;;4864250;29;20048;-78
2022/05/29 03:14:25;;;;;;;1.50;1.40;;;;;;;;;;4901097;29;20048;-78
2022/05/29 03:16:53;;;;;;;1.60;1.50;;;;;;;;;;4899791;29;20458;-78
2022/05/29 03:19:51;;;;;;;1.85;1.48;;;;;;;;;;4865162;29;20080;-78
2022/05/29 03:22:45;;;;;;;2.83;1.80;;;;;;;;;;4881687;29;20036;-78
2022/05/29 03:25:22;;;;;;;1.88;1.50;;;;;;;;;;4881997;29;20401;-78
2022/05/29 03:27:51;;;;;;;1.83;1.50;;;;;;;;;;4900380;29;20168;-79
2022/05/29 03:30:21;;;;;;;1.83;1.73;;;;;;;;;;4882778;29;20052;-78
2022/05/29 03:32:50;;;;;;;1.10;1.10;;;;;;;;;;4893354;29;20048;-78
2022/05/29 03:35:26;;;;;;;2.08;1.40;;;;;;;;;;4882855;29;20052;-78
2022/05/29 03:37:54;;;;;;;1.73;1.60;;;;;;;;;;4882800;29;20045;-79
2022/05/29 03:40:22;;;;;;;1.52;1.45;;;;;;;;;;4902228;29;20048;-78
2022/05/29 03:42:49;;;;;;;1.95;1.60;;;;;;;;;;4898347;29;20128;-79
2022/05/29 03:45:17;;;;;;;1.60;1.50;;;;;;;;;;4890893;29;20052;-78
2022/05/29 03:47:45;;;;;;;1.70;1.60;;;;;;;;;;4878873;29;20040;-78
2022/05/29 03:50:14;;;;;;;1.58;1.48;;;;;;;;;;4886160;29;20080;-79
2022/05/29 03:52:42;;;;;;;2.30;1.65;;;;;;;;;;4873273;29;20565;-79
2022/05/29 03:55:09;;;;;;;1.90;1.70;;;;;;;;;;4872120;29;20288;-79
2022/05/29 03:57:37;;;;;;;2.05;1.65;;;;;;;;;;4873235;29;20064;-78
2022/05/29 04:00:05;;;;;;;1.77;1.55;;;;;;;;;;4888988;29;20054;-78
2022/05/29 04:02:41;;;;;;;1.50;1.38;;;;;;;;;;4854452;29;20159;-78
2022/05/29 04:05:09;;;;;;;1.92;1.42;;;;;;;;;;4886164;29;20064;-79
2022/05/29 04:13:09;;;;;;;2.92;1.70;;;;;;;;;;4876302;29;20047;-79
2022/05/29 04:15:41;;;;;;;1.63;1.52;;;;;;;;;;4876448;29;20044;-79
2022/05/29 04:18:08;;;;;;;1.70;1.60;;;;;;;;;;4857913;29;20156;-79
2022/05/29 04:20:36;;;;;;;2.22;1.65;;;;;;;;;;4890589;29;20043;-78
2022/05/29 04:23:03;;;;;;;1.45;1.35;;;;;;;;;;4889161;29;20174;-79
2022/05/29 04:25:30;;;;;;;2.00;1.80;;;;;;;;;;4890179;29;20392;-78
2022/05/29 04:27:58;;;;;;;3.33;1.90;;;;;;;;;;4853548;29;20052;-78
2022/05/29 04:30:25;;;;;;;2.95;1.73;;;;;;;;;;4864206;29;20041;-78
2022/05/29 04:33:02;;;;;;;1.90;1.60;;;;;;;;;;4870558;29;20048;-79
2022/05/29 04:35:31;;;;;;;2.03;1.58;;;;;;;;;;4888822;29;20298;-78
2022/05/29 04:37:58;;;;;;;2.05;1.95;;;;;;;;;;4887311;29;20041;-78
2022/05/29 04:40:26;;;;;;;1.92;1.83;;;;;;;;;;4873040;29;20079;-78
2022/05/29 04:42:53;;;;;;;5.25;1.90;;;;;;;;;;4884578;29;20450;-79
2022/05/29 04:45:21;;;;;;;2.70;2.20;;;;;;;;;;4882559;29;20045;-78
2022/05/29 04:47:48;;;;;;;2.22;1.95;;;;;;;;;;4869957;29;20044;-79
2022/05/29 04:50:15;;;;;;;6.97;2.15;;;;;;;;;;4879972;29;20049;-78
2022/05/29 04:52:43;;;;;;;3.92;2.20;;;;;;;;;;4874542;29;20068;-78
2022/05/29 04:55:10;;;;;;;2.80;2.60;;;;;;;;;;4867096;29;20474;-79
2022/05/29 04:57:42;;;;;;;2.15;1.95;;;;;;;;;;4874630;29;20045;-78
2022/05/29 05:00:09;;;;;;;2.80;2.25;;;;;;;;;;4890518;29;20037;-78
2022/05/29 05:02:37;;;;;;;3.05;2.30;;;;;;;;;;4864213;29;20451;-80
2022/05/29 05:05:04;;;;;;;2.10;2.00;;;;;;;;;;4881468;29;20052;-78
2022/05/29 05:07:32;;;;;;;5.00;2.03;;;;;;;;;;4876630;29;20139;-78
2022/05/29 05:10:00;;;;;;;2.50;2.25;;;;;;;;;;4882319;29;20052;-80
2022/05/29 05:12:27;;;;;;;3.40;1.90;;;;;;;;;;4878385;29;20489;-78
2022/05/29 05:14:54;;;;;;;2.00;1.90;;;;;;;;;;4878388;29;20037;-79
2022/05/29 05:17:22;;;;;;;2.83;2.50;;;;;;;;;;4884600;29;20473;-80
2022/05/29 05:19:49;;;;;;;2.30;2.08;;;;;;;;;;4849336;29;20092;-78
2022/05/29 05:22:16;;;;;;;3.20;2.15;;;;;;;;;;4881761;29;20131;-79
2022/05/29 05:24:44;;;;;;;2.67;1.85;;;;;;;;;;4875628;29;20044;-78
2022/05/29 05:27:12;;;;;;;4.15;2.05;;;;;;;;;;4888410;29;20129;-79
2022/05/29 05:29:42;;;;;;;2.75;1.70;;;;;;;;;;4871800;29;20072;-78
2022/05/29 05:32:09;;;;;;;2.28;1.60;;;;;;;;;;4887738;29;20049;-79
2022/05/29 05:34:37;;;;;;;2.22;1.67;;;;;;;;;;4883178;29;20055;-79
2022/05/29 05:37:04;;;;;;;3.55;1.80;;;;;;;;;;4876743;29;20147;-78
2022/05/29 05:39:32;;;;;;;2.92;1.70;;;;;;;;;;4874084;29;20175;-78
2022/05/29 05:41:59;;;;;;;2.30;1.85;;;;;;;;;;4887250;29;20051;-80
2022/05/29 05:44:26;;;;;;;3.03;1.70;;;;;;;;;;4884802;29;20152;-79
2022/05/29 05:46:54;;;;;;;1.58;1.48;;;;;;;;;;4881487;29;20059;-79
2022/05/29 05:49:27;;;;;;;1.50;1.40;;;;;;;;;;4880572;29;20048;-80
2022/05/29 05:51:57;;;;;;;2.72;1.50;;;;;;;;;;4887059;29;20075;-78
2022/05/29 05:54:25;;;;;;;3.17;1.67;;;;;;;;;;4883134;29;20040;-79
2022/05/29 05:56:52;;;;;;;1.75;1.58;;;;;;;;;;4860248;29;20053;-80
2022/05/29 05:59:19;;;;;;;1.70;1.60;;;;;;;;;;4883312;29;20045;-79
2022/05/29 06:01:47;;;;;;;1.73;1.42;;;;;;;;;;4868161;29;20037;-79
2022/05/29 06:04:14;;;;;;;2.40;1.30;;;;;;;;;;4880007;29;20135;-79
2022/05/29 06:06:42;;;;;;;1.50;1.30;;;;;;;;;;4885514;29;20041;-79
2022/05/29 06:09:09;;;;;;;1.85;1.30;;;;;;;;;;4886262;29;20785;-79
2022/05/29 06:11:39;;;;;;;1.85;1.65;;;;;;;;;;4879031;29;20040;-79
2022/05/29 06:14:07;;;;;;;1.60;1.50;;;;;;;;;;4867967;29;20051;-79
2022/05/29 06:16:36;;;;;;;2.22;1.55;;;;;;;;;;4878361;29;20816;-79
2022/05/29 06:19:05;;;;;;;2.97;1.38;;;;;;;;;;4855751;29;20508;-79
2022/05/29 06:21:36;;;;;;;1.17;1.17;;;;;;;;;;4885051;29;20089;-80
2022/05/29 06:24:03;;;;;;;3.25;1.33;;;;;;;;;;4878566;29;20570;-79
2022/05/29 06:26:31;;;;;;;1.48;1.38;;;;;;;;;;4877285;29;20108;-80
2022/05/29 06:28:58;;;;;;;2.67;1.35;;;;;;;;;;4869515;29;20045;-79
2022/05/29 06:31:25;;;;;;;2.10;1.13;;;;;;;;;;4874729;29;20263;-80
2022/05/29 06:33:53;;;;;;;1.45;1.35;;;;;;;;;;4876644;29;20041;-79
2022/05/29 06:36:23;;;;;;;2.97;1.20;;;;;;;;;;4888524;29;20112;-79
2022/05/29 06:38:51;;;;;;;2.75;1.33;;;;;;;;;;4893138;29;20055;-79
2022/05/29 06:41:20;;;;;;;1.52;1.30;;;;;;;;;;4885689;29;20037;-80
2022/05/29 06:43:50;;;;;;;2.15;1.30;;;;;;;;;;4879433;29;20139;-79
2022/05/29 06:46:18;;;;;;;1.65;1.20;;;;;;;;;;4874891;29;20461;-79
2022/05/29 06:48:45;;;;;;;1.40;1.20;;;;;;;;;;4895687;29;20044;-80
2022/05/29 06:51:14;;;;;;;1.23;1.17;;;;;;;;;;4897741;29;20047;-79
2022/05/29 06:53:42;;;;;;;1.52;0.98;;;;;;;;;;4863876;29;20076;-79
2022/05/29 06:56:10;;;;;;;1.90;1.10;;;;;;;;;;4865131;29;20742;-80
2022/05/29 06:58:38;;;;;;;2.28;1.10;;;;;;;;;;4866795;29;20068;-79
2022/05/29 07:09:25;;;;;;;2.13;1.20;;;;;;;;;;4874459;29;20501;-79
2022/05/29 07:12:02;;;;;;;1.40;1.30;;;;;;;;;;4868178;29;20052;-80
2022/05/29 07:14:30;;;;;;;1.77;1.20;;;;;;;;;;4887717;29;20493;-79
2022/05/29 07:17:26;;;;;;;3.75;1.10;;;;;;;;;;4905965;23;20048;-78
2022/05/29 07:21:16;;;;;;;1.52;1.30;;;;;;;;;;4879310;29;20047;-78
2022/05/29 07:24:39;;;;;;;1.48;1.20;;;;;;;;;;4848659;29;20057;-79
2022/05/29 07:30:13;;;;;;;1.57;1.43;;;;;;;;;;4890425;29;20036;-79
2022/05/29 07:33:10;;;;;;;1.30;1.20;;;;;;;;;;4884985;29;20051;-81
2022/05/29 07:35:50;;;;;;;1.40;1.30;;;;;;;;;;4887359;29;20045;-81
2022/05/29 07:38:22;;;;;;;2.65;1.40;;;;;;;;;;4877645;29;20551;-80
2022/05/29 07:44:22;;;;;;;2.72;1.55;;;;;;;;;;4877113;29;20460;-80
2022/05/29 07:46:53;;;;;;;1.80;1.27;;;;;;;;;;4887451;29;20174;-82
2022/05/29 07:49:31;;;;;;;1.95;1.40;;;;;;;;;;4887240;29;20053;-83
2022/05/29 07:52:10;;;;;;;1.10;1.02;;;;;;;;;;4870043;29;20117;-82
2022/05/29 07:55:15;;;;;;;1.75;1.20;;;;;;;;;;4862362;29;20055;-81
2022/05/29 07:58:38;;;;;;;;;;;;;;;;;;;;;
2022/05/29 08:01:39;;;;;;;1.27;1.17;;;;;;;;;;4855820;29;20076;-82
2022/05/29 08:04:39;;;;;;;1.90;1.13;;;;;;;;;;4860605;29;20056;-81
2022/05/29 08:08:03;;;;;;;3.72;1.20;;;;;;;;;;4876829;29;20053;-81
2022/05/29 08:10:54;;;;;;;3.25;1.45;;;;;;;;;;4874943;29;20056;-82
2022/05/29 08:14:07;;;;;;;2.03;1.20;;;;;;;;;;4860751;29;20598;-81
2022/05/29 08:16:55;;;;;;;1.20;1.10;;;;;;;;;;4861454;29;20045;-83
2022/05/29 08:19:52;;;;;;;1.77;1.40;;;;;;;;;;4855604;29;20049;-80
2022/05/29 08:22:55;;;;;;;2.28;1.10;;;;;;;;;;4874421;29;20049;-81
2022/05/29 08:32:45;;;;;;;1.35;0.93;;;;;;;;;;4831145;29;20049;-85
2022/05/29 08:36:21;;;;;;;1.15;0.90;;;;;;;;;;4819264;29;20638;-81
2022/05/29 08:40:03;;;;;;;;;;;;;;;;;;;;;
2022/05/29 08:43:32;;;;;;;1.58;0.88;;;;;;;;;;4812459;29;20103;-80
2022/05/29 08:47:22;;;;;;;;;;;;;;;;;;;;;
2022/05/29 08:50:47;;;;;;;2.67;0.90;;;;;;;;;;4795979;29;20090;-82
2022/05/29 08:54:43;;;;;;;0.93;0.80;;;;;;;;;;4796686;29;20051;-81
2022/05/29 09:03:14;;;;;;;2.60;0.98;;;;;;;;;;4706804;30;20037;-83
2022/05/29 09:16:01;;;;;;;1.23;1.10;;;;;;;;;;4648548;30;20522;-83
2022/05/29 09:20:09;;;;;;;1.08;0.93;;;;;;;;;;4716696;30;20594;-82
2022/05/29 09:31:49;;;;;;;1.42;0.77;;;;;;;;;;4712726;30;20198;-82
2022/05/29 09:35:01;;;;;;;1.08;0.80;;;;;;;;;;4781316;29;20052;-81
2022/05/29 09:38:38;;;;;;;4.00;1.33;;;;;;;;;;4804956;29;20042;-80
2022/05/29 09:41:46;;;;;;;2.60;1.40;;;;;;;;;;4814163;29;20141;-84
2022/05/29 09:44:39;;;;;;;2.38;1.58;;;;;;;;;;4783809;29;20210;-79
2022/05/29 10:01:44;;;;;;;2.67;1.77;;;;;;;;;;4770529;29;20541;-81
2022/05/29 10:04:37;;;;;;;2.70;1.67;;;;;;;;;;4772592;29;20051;-79
2022/05/29 10:07:42;;;;;;;2.10;1.83;;;;;;;;;;4794006;29;20058;-81
2022/05/29 10:10:32;;;;;;;2.28;1.75;;;;;;;;;;4774944;29;20094;-82
2022/05/29 10:13:43;;;;;;;4.25;2.03;;;;;;;;;;4887183;29;20060;-81
2022/05/29 10:17:03;;;;;;;1.80;1.70;;;;;;;;;;4887931;29;20044;-81
2022/05/29 10:21:09;;;;;;;;;;;;;;;;;;;;;
2022/05/29 10:27:54;;;;;;;4.13;1.50;;;;;;;;;;4847411;29;20060;-81
2022/05/29 10:31:25;;;;;;;2.80;1.50;;;;;;;;;;4831557;29;20420;-80
2022/05/29 10:34:37;;;;;;;2.67;1.40;;;;;;;;;;4835520;29;20048;-80
2022/05/29 10:37:51;;;;;;;3.22;1.40;;;;;;;;;;4851645;29;20891;-81
2022/05/29 10:41:03;;;;;;;3.05;1.38;;;;;;;;;;4846552;29;20049;-81
2022/05/29 10:52:02;;;;;;;;;;;;;;;;;;;;;
2022/05/29 10:56:07;;;;;;;3.17;1.52;;;;;;;;;;4790157;29;20046;-81
2022/05/29 10:59:42;;;;;;;3.05;1.80;;;;;;;;;;4784280;29;20173;-80
2022/05/29 11:03:28;;;;;;;2.67;1.70;;;;;;;;;;4776179;29;20172;-80
2022/05/29 11:06:33;;;;;;;4.22;2.22;;;;;;;;;;4745189;29;20059;-80
2022/05/29 11:10:02;;;;;;;4.20;1.50;;;;;;;;;;4784297;29;20569;-80
2022/05/29 11:13:37;;;;;;;2.45;1.58;;;;;;;;;;4768126;29;20060;-81
2022/05/29 11:17:39;;;;;;;2.85;1.25;;;;;;;;;;4794857;29;20070;-80
2022/05/29 11:20:56;;;;;;;4.07;1.45;;;;;;;;;;4784312;29;20337;-78
2022/05/29 11:24:22;;;;;;;1.27;1.17;;;;;;;;;;4747008;30;20047;-79
2022/05/29 11:32:19;;;;;;;1.35;0.80;;;;;;;;;;4802607;29;20055;-80
2022/05/29 11:42:27;;;;;;;1.70;1.05;;;;;;;;;;4885905;29;20052;-76
2022/05/29 11:53:29;;;;;;;2.45;1.02;;;;;;;;;;4880939;29;20044;-80
2022/05/29 11:56:59;;;;;;;2.92;1.10;;;;;;;;;;4860494;29;20513;-79
2022/05/29 12:00:13;;;;;;;1.50;1.20;;;;;;;;;;4884961;29;20056;-80
2022/05/29 12:03:18;;;;;;;2.70;1.05;;;;;;;;;;4867376;29;20545;-78
2022/05/29 12:06:16;;;;;;;1.10;1.00;;;;;;;;;;4857482;29;20045;-78
2022/05/29 12:09:28;;;;;;;1.30;1.20;;;;;;;;;;4820851;29;20125;-79
2022/05/29 12:12:53;;;;;;;3.55;0.98;;;;;;;;;;4823191;29;20050;-81
2022/05/29 12:16:38;;;;;;;1.70;1.02;;;;;;;;;;4789429;29;20065;-76
2022/05/29 12:23:11;;;;;;;1.63;0.95;;;;;;;;;;4892155;29;20048;-82
2022/05/29 12:26:10;;;;;;;1.17;0.80;;;;;;;;;;4836545;29;21328;-79
2022/05/29 12:30:24;;;;;;;0.80;0.80;;;;;;;;;;4864841;29;20091;-78
2022/05/29 12:33:51;;;;;;;2.25;1.05;;;;;;;;;;4788884;29;20049;-79
2022/05/29 12:37:27;;;;;;;6.05;5.45;;;;;;;;;;4816283;29;20053;-78
2022/05/29 12:44:09;;;;;;;1.52;0.88;;;;;;;;;;4860087;29;20055;-77
2022/05/29 12:47:52;;;;;;;0.60;0.60;;;;;;;;;;4888242;29;20190;-79
2022/05/29 12:51:00;;;;;;;1.02;0.88;;;;;;;;;;4871104;29;20546;-78
2022/05/29 12:53:58;;;;;;;1.17;0.82;;;;;;;;;;4865354;29;20063;-77
2022/05/29 12:57:30;;;;;;;1.58;0.80;;;;;;;;;;4873877;23;20060;-77
2022/05/29 13:00:10;;;;;;;2.85;0.70;;;;;;;;;;4860714;29;20677;-77
2022/05/29 13:02:38;;;;;;;0.75;0.73;;;;;;;;;;4879942;29;20104;-77
2022/05/29 13:05:11;;;;;;;2.67;0.85;;;;;;;;;;4861396;29;21330;-77
2022/05/29 13:07:55;;;;;;;2.03;1.10;;;;;;;;;;4860796;29;20052;-76
2022/05/29 13:10:27;;;;;;;1.10;0.90;;;;;;;;;;4882763;29;20040;-79
2022/05/29 13:13:09;;;;;;;3.25;1.10;;;;;;;;;;4858996;29;20056;-79
2022/05/29 13:15:44;;;;;;;0.88;0.88;;;;;;;;;;4859290;29;20573;-80
2022/05/29 13:21:13;;;;;;;1.00;0.80;;;;;;;;;;4852891;29;20057;-80
2022/05/29 13:23:46;;;;;;;3.67;2.10;;;;;;;;;;4883407;29;20061;-80
2022/05/29 13:26:16;;;;;;;2.00;1.00;;;;;;;;;;4866507;29;20072;-81
2022/05/29 13:28:43;;;;;;;1.10;1.00;;;;;;;;;;4887625;29;20052;-81
2022/05/29 13:31:15;;;;;;;0.90;0.77;;;;;;;;;;4866973;29;20055;-81
2022/05/29 13:33:44;;;;;;;1.23;0.95;;;;;;;;;;4887793;29;20164;-80
2022/05/29 13:36:32;;;;;;;1.42;1.00;;;;;;;;;;4852163;29;20056;-81
2022/05/29 13:39:00;;;;;;;0.70;0.70;;;;;;;;;;4884529;29;20052;-81
2022/05/29 13:41:29;;;;;;;1.10;1.00;;;;;;;;;;4880387;29;20041;-81
2022/05/29 13:43:58;;;;;;;3.00;1.00;;;;;;;;;;4868691;29;20056;-80
2022/05/29 13:46:26;;;;;;;1.85;0.80;;;;;;;;;;4882317;29;20060;-81
2022/05/29 13:49:03;;;;;;;1.05;0.80;;;;;;;;;;4879688;29;20134;-80
2022/05/29 13:51:40;;;;;;;1.67;1.30;;;;;;;;;;4841620;29;20056;-80
2022/05/29 13:54:21;;;;;;;1.20;1.08;;;;;;;;;;4878134;29;20048;-81
2022/05/29 13:57:10;;;;;;;1.95;1.10;;;;;;;;;;4862343;29;20045;-81
2022/05/29 14:05:34;;;;;;;1.52;1.00;;;;;;;;;;4863858;29;20068;-83
2022/05/29 14:08:24;;;;;;;1.80;0.80;;;;;;;;;;4857537;29;20163;-81
2022/05/29 14:11:01;;;;;;;1.10;1.10;;;;;;;;;;4854320;29;20081;-81
2022/05/29 14:13:28;;;;;;;1.77;0.82;;;;;;;;;;4873532;29;20131;-80
2022/05/29 14:15:59;;;;;;;1.42;1.30;;;;;;;;;;4880802;29;20056;-80
2022/05/29 14:18:29;;;;;;;0.80;0.80;;;;;;;;;;4884165;29;20113;-80
2022/05/29 14:21:20;;;;;;;2.95;1.20;;;;;;;;;;4883975;29;20060;-80
2022/05/29 14:23:54;;;;;;;2.65;0.93;;;;;;;;;;4861942;24;20050;-79
2022/05/29 14:29:49;;;;;;;0.85;0.65;;;;;;;;;;4823786;29;20437;-78
2022/05/29 14:32:23;;;;;;;2.85;1.00;;;;;;;;;;4828743;29;20369;-79
2022/05/29 14:35:09;;;;;;;2.90;0.80;;;;;;;;;;4831075;29;20145;-78
2022/05/29 14:37:49;;;;;;;1.52;1.00;;;;;;;;;;4835372;29;20057;-80
2022/05/29 14:40:35;;;;;;;2.67;0.80;;;;;;;;;;4832882;29;20049;-80
2022/05/29 14:43:08;;;;;;;2.35;0.90;;;;;;;;;;4829533;29;20080;-79
2022/05/29 14:45:37;;;;;;;0.98;0.80;;;;;;;;;;4826648;29;20054;-78
2022/05/29 14:48:10;;;;;;;3.50;0.90;;;;;;;;;;4840153;29;20046;-78
2022/05/29 14:50:41;;;;;;;2.97;0.82;;;;;;;;;;4843530;29;20084;-79
2022/05/29 14:53:11;;;;;;;0.93;0.88;;;;;;;;;;4838477;29;20058;-79
2022/05/29 14:55:41;;;;;;;0.70;0.70;;;;;;;;;;4818601;29;20234;-79
2022/05/29 14:58:41;;;;;;;0.80;0.80;;;;;;;;;;4836235;29;20061;-80
2022/05/29 15:01:28;;;;;;;1.63;0.98;;;;;;;;;;4829566;29;20052;-80
2022/05/29 15:03:56;;;;;;;0.80;0.80;;;;;;;;;;4831132;29;20049;-79
2022/05/29 15:06:32;;;;;;;2.78;0.80;;;;;;;;;;4820538;29;20125;-79
2022/05/29 15:11:47;;;;;;;1.27;1.00;;;;;;;;;;4831918;29;20046;-78
2022/05/29 15:14:21;;;;;;;2.63;0.90;;;;;;;;;;4832466;29;20465;-80
2022/05/29 15:16:52;;;;;;;0.73;0.70;;;;;;;;;;4802147;29;20042;-79
2022/05/29 15:19:20;;;;;;;3.08;0.93;;;;;;;;;;4833575;29;20046;-79
2022/05/29 15:25:04;;;;;;;1.45;1.05;;;;;;;;;;4832479;29;20053;-81
2022/05/29 15:27:39;;;;;;;0.88;0.70;;;;;;;;;;4825948;29;20054;-78
2022/05/29 15:30:12;;;;;;;1.50;1.00;;;;;;;;;;4815026;29;20585;-79
2022/05/29 15:32:41;;;;;;;2.55;0.90;;;;;;;;;;4831499;29;20041;-80
2022/05/29 15:35:23;;;;;;;1.48;1.27;;;;;;;;;;4830061;29;20050;-78
2022/05/29 15:37:53;;;;;;;1.50;0.90;;;;;;;;;;4847367;29;20130;-80
2022/05/29 15:40:21;;;;;;;0.98;0.95;;;;;;;;;;4819394;29;20509;-80
2022/05/29 15:43:04;;;;;;;2.28;0.85;;;;;;;;;;4831675;29;20507;-79
2022/05/29 15:45:44;;;;;;;1.40;1.30;;;;;;;;;;4802406;29;20073;-78
2022/05/29 15:48:17;;;;;;;2.90;1.33;;;;;;;;;;4834665;29;20053;-79
2022/05/29 15:51:04;;;;;;;1.38;0.80;;;;;;;;;;4816627;29;20164;-78
2022/05/29 15:53:39;;;;;;;2.53;1.10;;;;;;;;;;4830706;29;20117;-80
2022/05/29 15:56:08;;;;;;;1.23;0.80;;;;;;;;;;4827715;29;20058;-78
2022/05/29 15:58:51;;;;;;;2.00;1.00;;;;;;;;;;4830344;29;20145;-79
2022/05/29 16:01:19;;;;;;;0.77;0.75;;;;;;;;;;4813392;29;20070;-79
2022/05/29 16:03:48;;;;;;;1.40;1.30;;;;;;;;;;4833459;29;20050;-79
2022/05/29 16:06:34;;;;;;;1.33;0.80;;;;;;;;;;4831510;29;20061;-78
2022/05/29 16:09:20;;;;;;;1.10;0.80;;;;;;;;;;4827098;29;20130;-79
2022/05/29 16:11:52;;;;;;;2.63;0.80;;;;;;;;;;4828941;29;20157;-79
2022/05/29 16:14:45;;;;;;;0.88;0.88;;;;;;;;;;4828317;29;20126;-79
2022/05/29 16:17:22;;;;;;;0.98;0.98;;;;;;;;;;4829140;29;20057;-79
2022/05/29 16:19:56;;;;;;;1.15;0.80;;;;;;;;;;4832869;29;20089;-79
2022/05/29 16:22:30;;;;;;;0.90;0.70;;;;;;;;;;4834105;29;20068;-79
2022/05/29 16:25:08;;;;;;;0.82;0.82;;;;;;;;;;4830461;29;20111;-79
2022/05/29 16:27:45;;;;;;;2.28;0.90;;;;;;;;;;4834426;29;20045;-80
2022/05/29 16:30:31;;;;;;;0.90;0.90;;;;;;;;;;4835299;29;20133;-80
2022/05/29 16:33:08;;;;;;;3.88;0.90;;;;;;;;;;4835231;29;20081;-80
2022/05/29 16:35:44;;;;;;;0.90;0.90;;;;;;;;;;4830909;29;20050;-80
2022/05/29 16:49:38;;;;;;;1.10;0.93;;;;;;;;;;4840258;29;20860;-80
2022/05/29 16:52:22;;;;;;;0.93;0.88;;;;;;;;;;4827521;29;20095;-77
2022/05/29 16:55:00;;;;;;;1.45;0.77;;;;;;;;;;4826115;29;20512;-77
2022/05/29 16:57:35;;;;;;;1.85;1.00;;;;;;;;;;4825836;29;20038;-80
2022/05/29 17:00:23;;;;;;;2.95;1.00;;;;;;;;;;4827737;29;20145;-78
2022/05/29 17:03:12;;;;;;;1.83;1.10;;;;;;;;;;4822661;29;20046;-77
2022/05/29 17:05:44;;;;;;;0.80;0.80;;;;;;;;;;4824215;29;20069;-78
2022/05/29 17:08:15;;;;;;;1.25;0.80;;;;;;;;;;4825448;29;20050;-80
2022/05/29 17:10:47;;;;;;;0.95;0.82;;;;;;;;;;4824699;29;20102;-78
2022/05/29 17:13:15;;;;;;;2.90;1.00;;;;;;;;;;4826835;29;20066;-80
2022/05/29 17:15:42;;;;;;;2.47;0.80;;;;;;;;;;4829107;29;20050;-79
2022/05/29 17:18:10;;;;;;;0.98;0.80;;;;;;;;;;4827602;29;20057;-79
2022/05/29 17:20:40;;;;;;;1.95;1.00;;;;;;;;;;4830484;29;20178;-79
2022/05/29 17:23:13;;;;;;;0.90;0.90;;;;;;;;;;4829406;29;20042;-79
2022/05/29 17:25:43;;;;;;;1.17;0.88;;;;;;;;;;4829326;29;20050;-79
2022/05/29 17:28:14;;;;;;;2.05;0.90;;;;;;;;;;4831415;29;20052;-80
2022/05/29 17:30:46;;;;;;;1.52;0.90;;;;;;;;;;4829756;29;20087;-79
2022/05/29 17:33:21;;;;;;;2.00;1.00;;;;;;;;;;4809269;29;20502;-79
2022/05/29 17:35:51;;;;;;;3.15;2.65;;;;;;;;;;4808064;29;20074;-79
2022/05/29 17:38:29;;;;;;;2.75;1.42;;;;;;;;;;4828621;29;20065;-79
2022/05/29 17:40:56;;;;;;;1.58;1.10;;;;;;;;;;4822227;29;20104;-79
2022/05/29 17:43:27;;;;;;;1.00;1.00;;;;;;;;;;4810817;29;20041;-79
2022/05/29 17:45:56;;;;;;;2.25;1.02;;;;;;;;;;4820708;29;20167;-79
2022/05/29 17:48:39;;;;;;;1.02;0.98;;;;;;;;;;4822721;29;20061;-79
2022/05/29 17:51:13;;;;;;;1.42;1.15;;;;;;;;;;4827178;29;20148;-80
2022/05/29 17:54:01;;;;;;;1.20;0.98;;;;;;;;;;4824376;29;20049;-80
2022/05/29 17:56:30;;;;;;;1.92;1.10;;;;;;;;;;4809087;29;20553;-78
2022/05/29 17:58:58;;;;;;;1.10;1.00;;;;;;;;;;4807678;29;20058;-81
2022/05/29 18:01:25;;;;;;;1.98;1.10;;;;;;;;;;4836003;29;20121;-79
2022/05/29 18:03:53;;;;;;;1.05;0.98;;;;;;;;;;4823140;29;20057;-81
2022/05/29 18:06:20;;;;;;;3.35;1.00;;;;;;;;;;4821391;29;20056;-79
2022/05/29 18:08:48;;;;;;;0.90;0.90;;;;;;;;;;4802652;29;20053;-80
2022/05/29 18:11:17;;;;;;;1.30;0.90;;;;;;;;;;4822448;29;20514;-79
2022/05/29 18:13:45;;;;;;;1.27;1.17;;;;;;;;;;4830957;29;20053;-79
2022/05/29 18:16:13;;;;;;;1.00;0.90;;;;;;;;;;4809507;29;20050;-79
2022/05/29 18:18:40;;;;;;;1.13;0.90;;;;;;;;;;4828254;29;20042;-80
2022/05/29 18:21:08;;;;;;;1.52;1.00;;;;;;;;;;4830718;29;20058;-80
2022/05/29 18:23:35;;;;;;;2.35;2.10;;;;;;;;;;4808015;29;20141;-79
2022/05/29 18:26:03;;;;;;;1.05;0.80;;;;;;;;;;4827337;29;20049;-80
2022/05/29 18:28:31;;;;;;;2.03;1.20;;;;;;;;;;4824076;29;20050;-79
2022/05/29 18:30:58;;;;;;;2.15;0.82;;;;;;;;;;4825290;29;20517;-79
2022/05/29 18:33:32;;;;;;;0.95;0.90;;;;;;;;;;4813605;29;20046;-79
2022/05/29 18:36:00;;;;;;;1.58;1.00;;;;;;;;;;4830590;29;20050;-80
2022/05/29 18:38:27;;;;;;;1.33;1.00;;;;;;;;;;4814800;29;20053;-79
2022/05/29 18:40:56;;;;;;;1.10;1.00;;;;;;;;;;4818307;29;20038;-80
2022/05/29 18:43:23;;;;;;;1.17;1.02;;;;;;;;;;4832895;29;20400;-80
2022/05/29 18:45:51;;;;;;;2.40;1.00;;;;;;;;;;4816262;29;20070;-79
2022/05/29 18:48:18;;;;;;;1.88;0.98;;;;;;;;;;4830584;29;20057;-80
2022/05/29 18:50:47;;;;;;;1.85;1.20;;;;;;;;;;4834324;29;20065;-80
2022/05/29 18:53:14;;;;;;;1.15;1.05;;;;;;;;;;4812939;29;20149;-80
2022/05/29 18:55:42;;;;;;;1.52;1.30;;;;;;;;;;4830895;29;20814;-80
2022/05/29 18:58:10;;;;;;;4.45;1.33;;;;;;;;;;4812816;29;20049;-80
2022/05/29 19:00:39;;;;;;;1.42;1.13;;;;;;;;;;4825639;29;20050;-79
2022/05/29 19:03:09;;;;;;;3.40;2.67;;;;;;;;;;4815017;29;20060;-79
2022/05/29 19:05:40;;;;;;;3.00;1.50;;;;;;;;;;4812138;29;20211;-79
2022/05/29 19:08:09;;;;;;;2.53;1.10;;;;;;;;;;4831527;29;20065;-79